Ocean King — CZ2591 — position and weather

sailwx.info

Track history (hours):
 
Tides and Currents Weather Stations Pressure Air Temp Water Temp Dewpoint Dewpoint Depression Visibility Wind Speed Wind Dir Waves Ship Positions

Ocean King

Last reported at 2016-Sep-26 08:33 UTC. Time now 2016-Sep-26 08:46 UTC.
Position N 48°55' W 125°46'.

Length 29 m; draft 4 m.

Type: Fishing. MMSI: 316003514.

Date/timePositionNaut miles runAvg speedWind from/ knotsBaromVisibWave heightAir tempDewpointWater temp
2016-Sep-26 08:33N 48°55' W 125°46'9 1.5
2016-Sep-26 02:33N 48°56' W 125°32'0 0.0
2016-Sep-26 01:33N 48°56' W 125°32'0 0.0
2016-Sep-26 00:34N 48°56' W 125°32'0 0.0
2016-Sep-25 21:33N 48°56' W 125°32'0 0.0
2016-Sep-25 17:33N 48°56' W 125°32'0 0.0
2016-Sep-25 16:33N 48°56' W 125°32'0 0.0
2016-Sep-25 15:34N 48°56' W 125°32'0 0.0
2016-Sep-25 14:33N 48°56' W 125°32'0 0.0
2016-Sep-25 12:33N 48°56' W 125°32'0 0.0
2016-Sep-25 11:34N 48°56' W 125°32'0 0.0
2016-Sep-25 10:34N 48°56' W 125°32'0 0.0
2016-Sep-25 09:34N 48°56' W 125°32'0 0.0
2016-Sep-25 07:33N 48°56' W 125°32'0 0.0
2016-Sep-25 04:34N 48°56' W 125°32'0 0.0
2016-Sep-25 00:33N 48°56' W 125°32'0 0.0
2016-Sep-24 22:34N 48°56' W 125°32'0 0.0
2016-Sep-24 21:33N 48°56' W 125°32'0 0.0
2016-Sep-24 19:34N 48°56' W 125°32'0 0.0
2016-Sep-24 18:34N 48°56' W 125°32'0 0.0
2016-Sep-24 17:33N 48°56' W 125°32'0 0.0
2016-Sep-24 16:33N 48°56' W 125°32'0 0.0
2016-Sep-24 14:33N 48°56' W 125°32'0 0.0
2016-Sep-24 12:33N 48°56' W 125°32'0 0.0
2016-Sep-24 10:34N 48°56' W 125°32'0 0.0
2016-Sep-24 09:34N 48°56' W 125°32'0 0.0
2016-Sep-24 03:34N 48°56' W 125°32'0 0.0
2016-Sep-24 02:33N 48°56' W 125°32'0 0.0
2016-Sep-24 01:34N 48°56' W 125°32'0 0.0
2016-Sep-24 00:34N 48°56' W 125°32'0 0.0
2016-Sep-23 19:33N 48°56' W 125°32'0 0.0
2016-Sep-23 17:33N 48°56' W 125°32'0 0.0
2016-Sep-23 16:33N 48°56' W 125°32'0 0.0
2016-Sep-23 15:34N 48°56' W 125°32'0 0.0
2016-Sep-23 13:33N 48°56' W 125°32'6 1.6
2016-Sep-23 09:33N 48°55' W 125°42'19 6.2
2016-Sep-23 06:33N 48°54' W 126°10'13 6.2
2016-Sep-23 04:30N 48°54' W 126°30'2 2.4
2016-Sep-23 03:32N 48°53' W 126°33'1 0.9
2016-Sep-23 02:31N 48°54' W 126°33'3 2.8
2016-Sep-23 01:33N 48°57' W 126°33'0 0.1
2016-Sep-22 20:23N 48°57' W 126°33'40 5.1
2016-Sep-22 12:33N 48°56' W 125°32'32 4.0
2016-Sep-22 04:32N 48°54' W 126°21'6 6.0
2016-Sep-22 03:33N 48°54' W 126°30'6 2.0
2016-Sep-22 00:33N 48°59' W 126°35'2 1.9
2016-Sep-21 23:33N 49°01' W 126°34'0 0.3
2016-Sep-21 22:33N 49°01' W 126°34'5 1.6
2016-Sep-21 19:33N 48°56' W 126°32'3 1.1
2016-Sep-21 16:33N 48°59' W 126°35'41 5.9
2016-Sep-21 09:33N 48°56' W 125°32'0 0.0
2016-Sep-21 08:33N 48°56' W 125°32'0 0.0
2016-Sep-21 05:33N 48°56' W 125°32'4 2.2
2016-Sep-21 03:33N 48°55' W 125°38'9 8.6
2016-Sep-21 02:33N 48°55' W 125°51'27 3.0
2016-Sep-20 17:33N 48°56' W 126°32'11 3.6
2016-Sep-20 14:33N 48°46' W 126°25'3 2.5
2016-Sep-20 13:30N 48°44' W 126°24'1 0.3
2016-Sep-20 10:33N 48°45' W 126°24'1 0.3
2016-Sep-20 08:33N 48°45' W 126°24'0 0.4
2016-Sep-20 07:33N 48°45' W 126°24'0 0.4
2016-Sep-20 06:29N 48°45' W 126°25'1 0.1
2016-Sep-20 02:32N 48°45' W 126°24'2 0.6
2016-Sep-19 23:32N 48°45' W 126°27'2 0.4
2016-Sep-19 19:28N 48°45' W 126°24'2 2.0
2016-Sep-19 18:31N 48°46' W 126°27'2 1.1
2016-Sep-19 16:29N 48°46' W 126°30'14 7.1
2016-Sep-19 14:33N 48°46' W 126°10'8 7.5
2016-Sep-19 13:33N 48°48' W 125°59'8 8.0
2016-Sep-19 12:33N 48°51' W 125°48'8 7.7
2016-Sep-19 11:33N 48°54' W 125°37'4 1.9
2016-Sep-19 09:33N 48°56' W 125°32'0 0.0
2016-Sep-19 07:33N 48°56' W 125°32'0 0.0
2016-Sep-19 06:33N 48°56' W 125°32'8 2.7
2016-Sep-19 03:33N 48°54' W 125°44'8 8.4
2016-Sep-19 02:33N 48°53' W 125°57'18 8.4
2016-Sep-19 00:26N 48°48' W 126°23'4 0.7
2016-Sep-18 19:33N 48°45' W 126°21'3 0.8
2016-Sep-18 15:28N 48°46' W 126°25'2 2.0
2016-Sep-18 14:33N 48°45' W 126°23'0 0.1
2016-Sep-18 10:33N 48°45' W 126°23'0 0.4
2016-Sep-18 09:31N 48°45' W 126°23'2 0.2
2016-Sep-18 02:26N 48°45' W 126°25'2 1.8
2016-Sep-18 01:30N 48°45' W 126°23'2 2.4
2016-Sep-18 00:33N 48°44' W 126°19'7 3.2
2016-Sep-17 22:28N 48°39' W 126°13'15 7.8
2016-Sep-17 20:33N 48°25' W 126°07'3 2.0
2016-Sep-17 19:16N 48°27' W 126°08'32 5.7
2016-Sep-17 13:33N 48°52' W 125°38'5 5.3
2016-Sep-17 12:34N 48°56' W 125°32'0 0.0
2016-Sep-17 10:33N 48°56' W 125°32'0 0.0
2016-Sep-17 09:33N 48°56' W 125°32'0 0.0
2016-Sep-17 08:33N 48°56' W 125°32'0 0.0
2016-Sep-17 07:34N 48°56' W 125°32'2 1.1
2016-Sep-17 05:33N 48°55' W 125°34'9 8.9
2016-Sep-17 04:33N 48°52' W 125°47'20 5.1
2016-Sep-17 00:33N 48°44' W 126°16'8 1.2
2016-Sep-16 17:33N 48°36' W 126°12'12 5.8
2016-Sep-16 15:33N 48°46' W 126°21'12 4.1
2016-Sep-16 12:33N 48°39' W 126°06'22 7.4
2016-Sep-16 09:33N 48°51' W 125°38'6 3.2
2016-Sep-16 07:33N 48°56' W 125°32'0 0.0
2016-Sep-16 03:33N 48°56' W 125°32'  
Track history (hours):
 
Tides and Currents Weather Stations Pressure Air Temp Water Temp Dewpoint Dewpoint Depression Visibility Wind Speed Wind Dir Waves Ship Positions

Ocean King

Last reported at 2016-Sep-26 08:33 UTC. Time now 2016-Sep-26 08:46 UTC.
Position N 48°55' W 125°46'.

Length 29 m; draft 4 m.

Type: Fishing. MMSI: 316003514.

Date/timePositionNaut miles runAvg speedWind from/ knotsBaromVisibWave heightAir tempDewpointWater temp
2016-Sep-26 08:33N 48°55' W 125°46'9 1.5
2016-Sep-26 02:33N 48°56' W 125°32'0 0.0
2016-Sep-26 01:33N 48°56' W 125°32'0 0.0
2016-Sep-26 00:34N 48°56' W 125°32'0 0.0
2016-Sep-25 21:33N 48°56' W 125°32'0 0.0
2016-Sep-25 17:33N 48°56' W 125°32'0 0.0
2016-Sep-25 16:33N 48°56' W 125°32'0 0.0
2016-Sep-25 15:34N 48°56' W 125°32'0 0.0
2016-Sep-25 14:33N 48°56' W 125°32'0 0.0
2016-Sep-25 12:33N 48°56' W 125°32'0 0.0
2016-Sep-25 11:34N 48°56' W 125°32'0 0.0
2016-Sep-25 10:34N 48°56' W 125°32'0 0.0
2016-Sep-25 09:34N 48°56' W 125°32'0 0.0
2016-Sep-25 07:33N 48°56' W 125°32'0 0.0
2016-Sep-25 04:34N 48°56' W 125°32'0 0.0
2016-Sep-25 00:33N 48°56' W 125°32'0 0.0
2016-Sep-24 22:34N 48°56' W 125°32'0 0.0
2016-Sep-24 21:33N 48°56' W 125°32'0 0.0
2016-Sep-24 19:34N 48°56' W 125°32'0 0.0
2016-Sep-24 18:34N 48°56' W 125°32'0 0.0
2016-Sep-24 17:33N 48°56' W 125°32'0 0.0
2016-Sep-24 16:33N 48°56' W 125°32'0 0.0
2016-Sep-24 14:33N 48°56' W 125°32'0 0.0
2016-Sep-24 12:33N 48°56' W 125°32'0 0.0
2016-Sep-24 10:34N 48°56' W 125°32'0 0.0
2016-Sep-24 09:34N 48°56' W 125°32'0 0.0
2016-Sep-24 03:34N 48°56' W 125°32'0 0.0
2016-Sep-24 02:33N 48°56' W 125°32'0 0.0
2016-Sep-24 01:34N 48°56' W 125°32'0 0.0
2016-Sep-24 00:34N 48°56' W 125°32'0 0.0
2016-Sep-23 19:33N 48°56' W 125°32'0 0.0
2016-Sep-23 17:33N 48°56' W 125°32'0 0.0
2016-Sep-23 16:33N 48°56' W 125°32'0 0.0
2016-Sep-23 15:34N 48°56' W 125°32'0 0.0
2016-Sep-23 13:33N 48°56' W 125°32'6 1.6
2016-Sep-23 09:33N 48°55' W 125°42'19 6.2
2016-Sep-23 06:33N 48°54' W 126°10'13 6.2
2016-Sep-23 04:30N 48°54' W 126°30'2 2.4
2016-Sep-23 03:32N 48°53' W 126°33'1 0.9
2016-Sep-23 02:31N 48°54' W 126°33'3 2.8
2016-Sep-23 01:33N 48°57' W 126°33'0 0.1
2016-Sep-22 20:23N 48°57' W 126°33'40 5.1
2016-Sep-22 12:33N 48°56' W 125°32'32 4.0
2016-Sep-22 04:32N 48°54' W 126°21'6 6.0
2016-Sep-22 03:33N 48°54' W 126°30'6 2.0
2016-Sep-22 00:33N 48°59' W 126°35'2 1.9
2016-Sep-21 23:33N 49°01' W 126°34'0 0.3
2016-Sep-21 22:33N 49°01' W 126°34'5 1.6
2016-Sep-21 19:33N 48°56' W 126°32'3 1.1
2016-Sep-21 16:33N 48°59' W 126°35'41 5.9
2016-Sep-21 09:33N 48°56' W 125°32'0 0.0
2016-Sep-21 08:33N 48°56' W 125°32'0 0.0
2016-Sep-21 05:33N 48°56' W 125°32'4 2.2
2016-Sep-21 03:33N 48°55' W 125°38'9 8.6
2016-Sep-21 02:33N 48°55' W 125°51'27 3.0
2016-Sep-20 17:33N 48°56' W 126°32'11 3.6
2016-Sep-20 14:33N 48°46' W 126°25'3 2.5
2016-Sep-20 13:30N 48°44' W 126°24'1 0.3
2016-Sep-20 10:33N 48°45' W 126°24'1 0.3
2016-Sep-20 08:33N 48°45' W 126°24'0 0.4
2016-Sep-20 07:33N 48°45' W 126°24'0 0.4
2016-Sep-20 06:29N 48°45' W 126°25'1 0.1
2016-Sep-20 02:32N 48°45' W 126°24'2 0.6
2016-Sep-19 23:32N 48°45' W 126°27'2 0.4
2016-Sep-19 19:28N 48°45' W 126°24'2 2.0
2016-Sep-19 18:31N 48°46' W 126°27'2 1.1
2016-Sep-19 16:29N 48°46' W 126°30'14 7.1
2016-Sep-19 14:33N 48°46' W 126°10'8 7.5
2016-Sep-19 13:33N 48°48' W 125°59'8 8.0
2016-Sep-19 12:33N 48°51' W 125°48'8 7.7
2016-Sep-19 11:33N 48°54' W 125°37'4 1.9
2016-Sep-19 09:33N 48°56' W 125°32'0 0.0
2016-Sep-19 07:33N 48°56' W 125°32'0 0.0
2016-Sep-19 06:33N 48°56' W 125°32'8 2.7
2016-Sep-19 03:33N 48°54' W 125°44'8 8.4
2016-Sep-19 02:33N 48°53' W 125°57'18 8.4
2016-Sep-19 00:26N 48°48' W 126°23'4 0.7
2016-Sep-18 19:33N 48°45' W 126°21'3 0.8
2016-Sep-18 15:28N 48°46' W 126°25'2 2.0
2016-Sep-18 14:33N 48°45' W 126°23'0 0.1
2016-Sep-18 10:33N 48°45' W 126°23'0 0.4
2016-Sep-18 09:31N 48°45' W 126°23'2 0.2
2016-Sep-18 02:26N 48°45' W 126°25'2 1.8
2016-Sep-18 01:30N 48°45' W 126°23'2 2.4
2016-Sep-18 00:33N 48°44' W 126°19'7 3.2
2016-Sep-17 22:28N 48°39' W 126°13'15 7.8
2016-Sep-17 20:33N 48°25' W 126°07'3 2.0
2016-Sep-17 19:16N 48°27' W 126°08'32 5.7
2016-Sep-17 13:33N 48°52' W 125°38'5 5.3
2016-Sep-17 12:34N 48°56' W 125°32'0 0.0
2016-Sep-17 10:33N 48°56' W 125°32'0 0.0
2016-Sep-17 09:33N 48°56' W 125°32'0 0.0
2016-Sep-17 08:33N 48°56' W 125°32'0 0.0
2016-Sep-17 07:34N 48°56' W 125°32'2 1.1
2016-Sep-17 05:33N 48°55' W 125°34'9 8.9
2016-Sep-17 04:33N 48°52' W 125°47'20 5.1
2016-Sep-17 00:33N 48°44' W 126°16'8 1.2
2016-Sep-16 17:33N 48°36' W 126°12'12 5.8
2016-Sep-16 15:33N 48°46' W 126°21'12 4.1
2016-Sep-16 12:33N 48°39' W 126°06'22 7.4
2016-Sep-16 09:33N 48°51' W 125°38'6 3.2
2016-Sep-16 07:33N 48°56' W 125°32'0 0.0
2016-Sep-16 03:33N 48°56' W 125°32'  

Dump ship's entire track history